createdAt,value
2018-04-01T00:00:59.480Z,15.95
2018-04-01T00:03:25.502Z,18.50
2018-04-01T00:05:51.534Z,19.37
2018-04-01T00:08:17.612Z,19.80
2018-04-01T00:10:43.640Z,20.67
2018-04-01T00:13:09.678Z,18.27
2018-04-01T00:15:35.716Z,18.95
2018-04-01T00:18:01.756Z,16.37
2018-04-01T00:20:27.792Z,15.00
2018-04-01T00:22:53.820Z,14.75
2018-04-01T00:25:19.855Z,15.68
2018-04-01T00:27:45.872Z,18.00
2018-04-01T00:30:11.916Z,17.77
2018-04-01T00:32:38.684Z,14.75
2018-04-01T00:35:04.728Z,18.30
2018-04-01T00:37:30.754Z,17.65
2018-04-01T00:39:56.796Z,15.90
2018-04-01T00:42:22.825Z,15.73
2018-04-01T00:44:48.857Z,15.85
2018-04-01T00:47:14.919Z,19.12
2018-04-01T00:49:41.705Z,16.83
2018-04-01T00:52:07.767Z,15.30
2018-04-01T00:54:34.531Z,16.23
2018-04-01T00:57:00.555Z,12.88
2018-04-01T00:59:26.593Z,15.98
2018-04-01T01:01:52.619Z,16.75
2018-04-01T01:04:18.664Z,14.30
2018-04-01T01:06:44.704Z,13.77
2018-04-01T01:09:10.737Z,15.90
2018-04-01T01:11:36.774Z,17.02
2018-04-01T01:14:02.811Z,16.70
2018-04-01T01:16:28.843Z,13.13
2018-04-01T01:18:54.873Z,14.15
2018-04-01T01:21:21.657Z,15.98
2018-04-01T01:23:47.689Z,13.60
2018-04-01T01:26:13.705Z,17.08
2018-04-01T01:28:39.741Z,14.05
2018-04-01T01:31:05.763Z,16.65
2018-04-01T01:33:31.803Z,17.00
2018-04-01T01:35:57.846Z,13.13
2018-04-01T01:38:24.635Z,14.40
2018-04-01T01:40:50.659Z,15.90
2018-04-01T01:43:16.694Z,16.52
2018-04-01T01:45:42.739Z,13.25
2018-04-01T01:48:09.510Z,14.75
2018-04-01T01:50:36.317Z,12.80
2018-04-01T01:53:02.350Z,13.15
2018-04-01T01:55:28.406Z,13.10
2018-04-01T01:57:55.203Z,13.75
2018-04-01T02:00:21.240Z,15.10
2018-04-01T02:02:47.279Z,13.80
2018-04-01T02:05:13.293Z,13.90
2018-04-01T02:07:40.079Z,14.43
2018-04-01T02:10:06.104Z,16.60
2018-04-01T02:12:32.130Z,22.23
2018-04-01T02:14:58.174Z,17.52
2018-04-01T02:17:24.226Z,13.27
2018-04-01T02:19:50.278Z,15.32
2018-04-01T02:22:16.307Z,14.27
2018-04-01T02:24:42.371Z,12.60
2018-04-01T02:27:08.379Z,14.82
2018-04-01T02:29:34.423Z,16.60
2018-04-01T02:32:00.499Z,16.73
2018-04-01T02:34:27.292Z,13.45
2018-04-01T02:36:53.340Z,11.73
2018-04-01T02:39:19.362Z,14.10
2018-04-01T02:41:45.376Z,11.82
2018-04-01T02:44:11.406Z,15.00
2018-04-01T02:46:37.537Z,13.40
2018-04-01T02:49:03.586Z,17.27
2018-04-01T02:51:29.630Z,13.50
2018-04-01T02:53:55.681Z,11.12
2018-04-01T02:56:21.702Z,14.77
2018-04-01T02:58:47.724Z,12.13
2018-04-01T03:01:13.760Z,12.20
2018-04-01T03:03:39.784Z,11.27
2018-04-01T03:06:06.568Z,11.20
2018-04-01T03:08:32.605Z,9.90
2018-04-01T03:10:58.651Z,9.35
2018-04-01T03:13:24.688Z,14.15
2018-04-01T03:15:50.740Z,13.95
2018-04-01T03:18:16.771Z,14.07
2018-04-01T03:20:42.806Z,11.10
2018-04-01T03:23:08.841Z,7.50
2018-04-01T03:25:34.866Z,10.57
2018-04-01T03:28:00.917Z,9.20
2018-04-01T03:30:26.935Z,13.98
2018-04-01T03:32:52.980Z,13.45
2018-04-01T03:35:19.013Z,11.55
2018-04-01T03:37:45.036Z,11.25
2018-04-01T03:40:11.076Z,11.00
2018-04-01T03:42:37.096Z,11.15
2018-04-01T03:45:03.150Z,9.20
2018-04-01T03:47:29.227Z,12.68
2018-04-01T03:49:55.251Z,10.27
2018-04-01T03:52:21.300Z,9.85
2018-04-01T03:54:48.072Z,12.57
2018-04-01T03:57:14.851Z,11.15
2018-04-01T03:59:40.879Z,10.27
2018-04-01T04:02:06.909Z,9.73
2018-04-01T04:04:32.982Z,11.98
2018-04-01T04:06:59.029Z,8.85
2018-04-01T04:09:25.075Z,9.70
2018-04-01T04:11:51.108Z,9.13
2018-04-01T04:14:17.169Z,11.38
2018-04-01T04:16:43.933Z,9.35
2018-04-01T04:19:09.952Z,11.43
2018-04-01T04:21:36.721Z,10.65
2018-04-01T04:24:02.767Z,9.20
2018-04-01T04:26:28.815Z,12.02
2018-04-01T04:28:54.851Z,7.60
2018-04-01T04:31:20.866Z,6.95
2018-04-01T04:33:46.906Z,8.05
2018-04-01T04:36:12.951Z,10.23
2018-04-01T04:38:38.987Z,11.88
2018-04-01T04:41:05.026Z,7.65
2018-04-01T04:43:31.065Z,9.20
2018-04-01T04:45:57.136Z,5.87
2018-04-01T04:48:23.173Z,9.00
2018-04-01T04:50:49.198Z,4.75
2018-04-01T04:53:15.209Z,6.55
2018-04-01T04:55:41.274Z,5.50
2018-04-01T04:58:07.292Z,6.70
2018-04-01T05:00:33.352Z,4.68
2018-04-01T05:02:59.367Z,10.15
2018-04-01T05:05:25.390Z,7.05
2018-04-01T05:07:51.426Z,5.90
2018-04-01T05:10:17.453Z,5.53
2018-04-01T05:12:43.503Z,7.30
2018-04-01T05:15:09.537Z,8.05
2018-04-01T05:17:35.570Z,5.80
2018-04-01T05:20:01.612Z,5.82
2018-04-01T05:22:27.659Z,8.60
2018-04-01T05:24:53.688Z,8.82
2018-04-01T05:27:19.702Z,7.37
2018-04-01T05:29:45.726Z,4.50
2018-04-01T05:32:11.751Z,6.43
2018-04-01T05:34:38.518Z,8.95
2018-04-01T05:37:04.571Z,7.43
2018-04-01T05:39:30.600Z,7.15
2018-04-01T05:41:56.623Z,6.60
2018-04-01T05:44:22.711Z,7.07
2018-04-01T05:46:48.763Z,8.10
2018-04-01T05:49:14.833Z,7.68
2018-04-01T05:51:40.861Z,7.12
2018-04-01T05:54:06.895Z,8.80
2018-04-01T05:56:33.691Z,11.32
2018-04-01T05:58:59.725Z,7.70
2018-04-01T06:01:25.763Z,6.15
2018-04-01T06:03:51.809Z,6.68
2018-04-01T06:06:17.831Z,7.68
2018-04-01T06:08:43.917Z,6.65
2018-04-01T06:11:10.704Z,7.30
2018-04-01T06:13:36.750Z,7.37
2018-04-01T06:16:02.805Z,5.20
2018-04-01T06:18:28.832Z,7.43
2018-04-01T06:20:54.872Z,6.10
2018-04-01T06:23:20.896Z,9.48
2018-04-01T06:25:46.977Z,6.70
2018-04-01T06:28:13.754Z,6.25
2018-04-01T06:30:39.809Z,6.93
2018-04-01T06:33:05.927Z,9.07
2018-04-01T06:35:31.964Z,6.57
2018-04-01T06:37:58.011Z,7.97
2018-04-01T06:40:24.028Z,7.47
2018-04-01T06:42:50.816Z,8.18
2018-04-01T06:45:16.829Z,10.60
2018-04-01T06:47:42.854Z,4.90
2018-04-01T06:50:09.626Z,8.00
2018-04-01T06:52:35.656Z,5.72
2018-04-01T06:55:01.684Z,8.57
2018-04-01T06:57:27.710Z,5.37
2018-04-01T06:59:54.491Z,7.25
2018-04-01T07:02:20.510Z,7.70
2018-04-01T07:04:46.540Z,8.18
2018-04-01T07:07:13.324Z,7.50
2018-04-01T07:09:39.352Z,6.50
2018-04-01T07:12:05.395Z,7.40
2018-04-01T07:14:31.420Z,8.43
2018-04-01T07:16:57.471Z,8.15
2018-04-01T07:19:23.512Z,6.78
2018-04-01T07:21:49.544Z,7.22
2018-04-01T07:24:15.591Z,8.90
2018-04-01T07:26:41.668Z,9.68
2018-04-01T07:29:08.470Z,9.00
2018-04-01T07:31:34.499Z,6.32
2018-04-01T07:34:00.529Z,9.30
2018-04-01T07:36:26.568Z,9.02
2018-04-01T07:38:52.588Z,8.95
2018-04-01T07:41:18.638Z,7.93
2018-04-01T07:43:44.669Z,7.80
2018-04-01T07:46:10.732Z,10.43
2018-04-01T07:48:36.772Z,12.02
2018-04-01T07:51:02.821Z,11.95
2018-04-01T07:53:28.893Z,9.73
2018-04-01T07:55:55.660Z,11.02
2018-04-01T07:58:21.705Z,9.90
2018-04-01T08:00:47.746Z,11.98
2018-04-01T08:03:13.767Z,10.95
2018-04-01T08:05:39.799Z,8.65
2018-04-01T08:08:05.871Z,8.93
2018-04-01T08:10:31.880Z,9.43
2018-04-01T08:12:57.907Z,10.70
2018-04-01T08:15:23.966Z,9.10
2018-04-01T08:17:50.007Z,8.43
2018-04-01T08:20:16.023Z,11.15
2018-04-01T08:22:42.097Z,8.30
2018-04-01T08:25:08.145Z,8.85
2018-04-01T08:27:34.196Z,8.35
2018-04-01T08:30:00.993Z,10.40
2018-04-01T08:32:27.040Z,7.62
2018-04-01T08:34:53.071Z,7.82
2018-04-01T08:37:19.111Z,7.30
2018-04-01T08:39:45.189Z,9.05
2018-04-01T08:42:11.224Z,7.22
2018-04-01T08:44:37.259Z,7.18
2018-04-01T08:47:03.316Z,12.80
2018-04-01T08:49:30.122Z,7.25
2018-04-01T08:51:56.163Z,7.68
2018-04-01T08:54:22.192Z,6.60
2018-04-01T08:56:48.982Z,8.20
2018-04-01T08:59:15.751Z,8.50
2018-04-01T09:01:41.805Z,8.35
2018-04-01T09:04:07.831Z,7.90
2018-04-01T09:06:33.878Z,8.18
2018-04-01T09:08:59.934Z,6.20
2018-04-01T09:11:25.967Z,8.70
2018-04-01T09:13:52.024Z,7.57
2018-04-01T09:16:18.082Z,9.38
2018-04-01T09:18:44.126Z,6.43
2018-04-01T09:21:10.919Z,8.48
2018-04-01T09:23:36.958Z,7.45
2018-04-01T09:26:03.008Z,7.90
2018-04-01T09:28:29.050Z,7.47
2018-04-01T09:30:55.131Z,6.50
2018-04-01T09:33:21.911Z,6.97
2018-04-01T09:35:47.978Z,5.30
2018-04-01T09:38:14.011Z,6.25
2018-04-01T09:40:40.042Z,4.65
2018-04-01T09:43:06.084Z,3.72
2018-04-01T09:45:32.137Z,3.80
2018-04-01T09:47:58.168Z,2.60
2018-04-01T09:50:24.196Z,2.28
2018-04-01T09:52:50.274Z,2.05
2018-04-01T09:55:17.046Z,2.35
2018-04-01T09:57:43.076Z,1.98
2018-04-01T10:00:09.146Z,5.50
2018-04-01T10:02:35.374Z,1.70
2018-04-01T10:05:11.612Z,2.50
2018-04-01T10:07:38.591Z,2.37
2018-04-01T10:10:04.828Z,3.03
2018-04-01T10:12:31.076Z,1.83
2018-04-01T10:14:57.335Z,3.78
2018-04-01T10:17:23.607Z,3.47
2018-04-01T10:19:49.839Z,5.57
2018-04-01T10:22:16.091Z,2.20
2018-04-01T10:24:42.347Z,6.00
2018-04-01T10:27:09.322Z,2.92
2018-04-01T10:29:35.569Z,3.60
2018-04-01T10:32:01.785Z,2.33
2018-04-01T10:34:28.747Z,4.97
2018-04-01T10:36:55.751Z,4.18
2018-04-01T10:39:21.965Z,4.43
2018-04-01T10:41:48.211Z,2.70
2018-04-01T10:44:14.465Z,3.80
2018-04-01T10:46:40.703Z,2.60
2018-04-01T10:49:06.995Z,2.70
2018-04-01T10:51:33.995Z,3.95
2018-04-01T10:54:00.021Z,3.22
2018-04-01T10:56:26.081Z,5.45
2018-04-01T10:58:52.171Z,3.00
2018-04-01T11:01:18.943Z,2.03
2018-04-01T11:03:45.008Z,2.10
2018-04-01T11:06:11.049Z,2.30
2018-04-01T11:08:37.130Z,1.98
2018-04-01T11:11:03.914Z,2.37
2018-04-01T11:13:29.969Z,3.17
2018-04-01T11:15:56.038Z,2.55
2018-04-01T11:18:22.140Z,3.25
2018-04-01T11:20:48.244Z,3.35
2018-04-01T11:23:14.285Z,5.80
2018-04-01T11:25:40.338Z,2.83
2018-04-01T11:28:06.385Z,2.20
2018-04-01T11:30:32.431Z,2.33
2018-04-01T11:32:59.209Z,1.90
2018-04-01T11:35:25.249Z,1.57
2018-04-01T11:37:51.315Z,2.33
2018-04-01T11:40:17.366Z,2.17
2018-04-01T11:42:43.440Z,2.60
2018-04-01T11:45:09.486Z,2.60
2018-04-01T11:47:35.521Z,1.83
2018-04-01T11:50:01.580Z,2.47
2018-04-01T11:52:28.378Z,2.23
2018-04-01T11:54:54.428Z,2.20
2018-04-01T11:57:20.466Z,2.72
2018-04-01T11:59:46.534Z,2.37
2018-04-01T12:02:12.564Z,2.17
2018-04-01T12:04:38.617Z,3.65
2018-04-01T12:07:05.400Z,2.65
2018-04-01T12:09:31.431Z,2.20
2018-04-01T12:11:57.483Z,5.68
2018-04-01T12:14:24.319Z,3.58
2018-04-01T12:16:50.331Z,1.80
2018-04-01T12:19:17.147Z,1.90
2018-04-01T12:21:43.207Z,9.80
2018-04-01T12:24:09.232Z,2.50
2018-04-01T12:26:35.302Z,2.47
2018-04-01T12:29:01.384Z,3.55
2018-04-01T12:31:27.428Z,2.22
2018-04-01T12:33:53.492Z,2.22
2018-04-01T12:36:20.259Z,1.70
2018-04-01T12:38:46.344Z,7.22
2018-04-01T12:41:13.119Z,3.05
2018-04-01T12:43:39.175Z,3.45
2018-04-01T12:46:06.008Z,1.87
2018-04-01T12:48:32.047Z,2.67
2018-04-01T12:50:58.089Z,6.55
2018-04-01T12:53:24.133Z,2.60
2018-04-01T12:55:50.923Z,2.45
2018-04-01T12:58:16.955Z,2.67
2018-04-01T13:00:43.039Z,3.58
2018-04-01T13:03:09.077Z,3.42
2018-04-01T13:05:35.119Z,2.25
2018-04-01T13:08:01.209Z,2.58
2018-04-01T13:10:27.259Z,5.30
2018-04-01T13:12:53.311Z,3.78
2018-04-01T13:15:19.332Z,5.75
2018-04-01T13:17:46.125Z,3.05
2018-04-01T13:20:12.903Z,4.28
2018-04-01T13:22:38.978Z,3.37
2018-04-01T13:25:05.123Z,3.92
2018-04-01T13:27:31.195Z,1.90
2018-04-01T13:29:58.004Z,1.33
2018-04-01T13:32:24.805Z,1.30
2018-04-01T13:34:51.647Z,0.95
2018-04-01T13:37:17.677Z,0.88
2018-04-01T13:39:43.737Z,0.75
2018-04-01T13:42:10.529Z,0.95
2018-04-01T13:44:36.577Z,1.00
2018-04-01T13:47:03.482Z,2.05
2018-04-01T13:49:30.263Z,0.85
2018-04-01T13:51:56.340Z,0.95
2018-04-01T13:54:22.376Z,1.10
2018-04-01T13:56:48.444Z,1.30
2018-04-01T13:59:15.248Z,2.60
2018-04-01T14:01:41.284Z,1.10
2018-04-01T14:04:07.337Z,1.30
2018-04-01T14:06:33.374Z,3.25
2018-04-01T14:08:59.452Z,1.85
2018-04-01T14:11:26.245Z,2.60
2018-04-01T14:13:52.280Z,1.40
2018-04-01T14:16:18.352Z,3.05
2018-04-01T14:18:45.374Z,1.50
2018-04-01T14:21:11.409Z,1.37
2018-04-01T14:23:37.449Z,1.85
2018-04-01T14:26:03.483Z,1.37
2018-04-01T14:28:29.527Z,1.00
2018-04-01T14:30:55.568Z,2.83
2018-04-01T14:33:22.342Z,0.88
2018-04-01T14:35:48.375Z,0.88
2018-04-01T14:38:14.434Z,1.33
2018-04-01T14:40:41.211Z,1.50
2018-04-01T14:43:07.238Z,4.15
2018-04-01T14:45:33.377Z,1.00
2018-04-01T14:47:59.408Z,0.90
2018-04-01T14:50:25.477Z,0.90
2018-04-01T14:52:51.526Z,1.40
2018-04-01T14:55:17.642Z,2.30
2018-04-01T14:57:43.691Z,1.00
2018-04-01T15:00:09.746Z,0.90
2018-04-01T15:02:35.818Z,1.10
2018-04-01T15:05:01.911Z,1.25
2018-04-01T15:07:27.990Z,1.20
2018-04-01T15:09:54.763Z,0.83
2018-04-01T15:12:20.825Z,3.80
2018-04-01T15:14:46.890Z,1.00
2018-04-01T15:17:12.955Z,3.70
2018-04-01T15:19:39.840Z,1.73
2018-04-01T15:22:05.910Z,0.80
2018-04-01T15:24:31.972Z,1.23
2018-04-01T15:26:58.771Z,0.93
2018-04-01T15:29:24.837Z,1.20
2018-04-01T15:31:51.659Z,1.33
2018-04-01T15:34:18.851Z,1.15
2018-04-01T15:36:44.931Z,0.90
2018-04-01T15:39:11.177Z,3.35
2018-04-01T15:41:37.255Z,0.80
2018-04-01T15:44:03.295Z,1.70
2018-04-01T15:46:29.360Z,0.93
2018-04-01T15:48:55.403Z,0.80
2018-04-01T15:51:22.218Z,1.45
2018-04-01T15:53:48.263Z,0.90
2018-04-01T15:56:14.328Z,1.20
2018-04-01T15:58:40.374Z,2.65
2018-04-01T16:01:07.157Z,0.95
2018-04-01T16:03:33.202Z,1.05
2018-04-01T16:05:59.245Z,1.77
2018-04-01T16:08:25.322Z,1.17
2018-04-01T16:10:51.378Z,1.50
2018-04-01T16:13:17.455Z,1.20
2018-04-01T16:15:43.500Z,2.25
2018-04-01T16:18:09.563Z,5.95
2018-04-01T16:20:35.629Z,5.20
2018-04-01T16:23:01.677Z,2.58
2018-04-01T16:25:27.765Z,1.27
2018-04-01T16:27:53.842Z,2.30
2018-04-01T16:30:19.922Z,1.58
2018-04-01T16:32:45.980Z,2.87
2018-04-01T16:35:12.030Z,6.20
2018-04-01T16:37:38.846Z,4.70
2018-04-01T16:40:04.910Z,1.92
2018-04-01T16:42:31.726Z,2.20
2018-04-01T16:44:57.793Z,1.98
2018-04-01T16:47:23.846Z,3.50
2018-04-01T16:49:50.666Z,3.20
2018-04-01T16:52:16.747Z,2.42
2018-04-01T16:54:43.542Z,2.47
2018-04-01T16:57:09.592Z,3.90
2018-04-01T16:59:35.640Z,2.22
2018-04-01T17:02:01.704Z,3.55
2018-04-01T17:04:28.487Z,4.68
2018-04-01T17:06:54.542Z,5.55
2018-04-01T17:09:20.673Z,3.10
2018-04-01T17:11:47.440Z,2.62
2018-04-01T17:14:13.504Z,3.55
2018-04-01T17:16:39.615Z,3.75
2018-04-01T17:19:05.715Z,4.43
2018-04-01T17:21:31.779Z,3.03
2018-04-01T17:23:57.835Z,6.65
2018-04-01T17:26:23.912Z,13.68
2018-04-01T17:28:49.963Z,2.97
2018-04-01T17:31:16.789Z,4.22
2018-04-01T17:33:43.609Z,3.30
2018-04-01T17:36:09.670Z,2.60
2018-04-01T17:38:35.719Z,5.47
2018-04-01T17:41:02.516Z,4.37
2018-04-01T17:43:28.557Z,4.05
2018-04-01T17:45:54.638Z,5.05
2018-04-01T17:48:21.422Z,2.90
2018-04-01T17:50:47.467Z,5.55
2018-04-01T17:53:13.527Z,4.45
2018-04-01T17:55:39.555Z,4.25
2018-04-01T17:58:05.603Z,6.72
2018-04-01T18:00:31.676Z,6.95
2018-04-01T18:02:58.466Z,8.43
2018-04-01T18:05:24.503Z,8.07
2018-04-01T18:07:50.567Z,5.65
2018-04-01T18:10:16.634Z,5.40
2018-04-01T18:12:43.462Z,4.32
2018-04-01T18:15:09.566Z,6.53
2018-04-01T18:17:35.605Z,5.50
2018-04-01T18:20:01.668Z,6.10
2018-04-01T18:22:27.744Z,8.70
2018-04-01T18:24:54.546Z,6.55
2018-04-01T18:27:20.613Z,6.55
2018-04-01T18:29:46.663Z,8.20
2018-04-01T18:32:13.505Z,6.22
2018-04-01T18:34:39.548Z,7.37
2018-04-01T18:37:06.058Z,5.43
2018-04-01T18:39:32.104Z,6.28
2018-04-01T18:41:58.196Z,6.37
2018-04-01T18:44:24.256Z,5.03
2018-04-01T18:46:50.381Z,4.65
2018-04-01T18:49:16.468Z,6.35
2018-04-01T18:51:42.542Z,7.25
2018-04-01T18:54:08.676Z,4.68
2018-04-01T18:56:34.758Z,9.20
2018-04-01T18:59:00.917Z,6.05
2018-04-01T19:01:26.982Z,4.78
2018-04-01T19:03:53.775Z,5.97
2018-04-01T19:06:19.860Z,5.40
2018-04-01T19:08:45.932Z,4.53
2018-04-01T19:11:12.009Z,4.95
2018-04-01T19:13:38.084Z,7.97
2018-04-01T19:16:05.104Z,5.47
2018-04-01T19:18:31.356Z,9.00
2018-04-01T19:20:57.687Z,12.50
2018-04-01T19:23:23.990Z,5.82
2018-04-01T19:25:50.258Z,7.35
2018-04-01T19:28:17.272Z,4.87
2018-04-01T19:30:43.550Z,5.18
2018-04-01T19:33:09.826Z,5.70
2018-04-01T19:35:36.127Z,4.47
2018-04-01T19:38:03.179Z,6.20
2018-04-01T19:40:29.418Z,4.65
2018-04-01T19:42:55.687Z,4.72
2018-04-01T19:45:21.974Z,6.93
2018-04-01T19:47:49.007Z,6.28
2018-04-01T19:50:15.289Z,5.10
2018-04-01T19:52:41.531Z,7.22
2018-04-01T19:55:07.758Z,7.30
2018-04-01T19:57:34.021Z,8.68
2018-04-01T20:00:00.287Z,5.37
2018-04-01T20:02:26.561Z,8.40
2018-04-01T20:04:52.869Z,7.30
2018-04-01T20:07:19.135Z,8.57
2018-04-01T20:09:45.399Z,5.47
2018-04-01T20:12:12.395Z,7.28
2018-04-01T20:14:38.646Z,7.18
2018-04-01T20:17:04.904Z,9.32
2018-04-01T20:19:31.182Z,5.07
2018-04-01T20:21:58.199Z,6.70
2018-04-01T20:24:24.519Z,6.18
2018-04-01T20:26:50.756Z,7.65
2018-04-01T20:29:17.018Z,5.90
2018-04-01T20:31:43.303Z,6.85
2018-04-01T20:34:10.307Z,15.00
2018-04-01T20:36:36.583Z,5.95
2018-04-01T20:39:02.908Z,5.80
2018-04-01T20:41:29.135Z,6.15
2018-04-01T20:43:55.416Z,8.40
2018-04-01T20:46:21.684Z,9.38
2018-04-01T20:48:47.915Z,7.72
2018-04-01T20:51:14.910Z,6.10
2018-04-01T20:53:41.312Z,8.52
2018-04-01T20:56:07.565Z,7.50
2018-04-01T20:58:33.791Z,6.03
2018-04-01T21:01:00.849Z,8.00
2018-04-01T21:03:27.140Z,8.70
2018-04-01T21:05:53.392Z,7.12
2018-04-01T21:08:19.630Z,5.97
2018-04-01T21:10:45.930Z,5.50
2018-04-01T21:13:12.194Z,6.05
2018-04-01T21:15:38.422Z,8.45
2018-04-01T21:18:04.674Z,8.07
2018-04-01T21:20:30.992Z,8.65
2018-04-01T21:22:57.186Z,7.00
2018-04-01T21:25:23.432Z,7.72
2018-04-01T21:27:49.694Z,7.62
2018-04-01T21:30:15.940Z,8.70
2018-04-01T21:32:42.952Z,10.10
2018-04-01T21:35:09.216Z,6.80
2018-04-01T21:37:35.468Z,9.38
2018-04-01T21:40:01.705Z,15.13
2018-04-01T21:42:27.938Z,9.43
2018-04-01T21:44:54.190Z,6.30
2018-04-01T21:47:20.463Z,8.00
2018-04-01T21:49:46.702Z,6.93
2018-04-01T21:52:12.922Z,7.65
2018-04-01T21:54:39.923Z,6.28
2018-04-01T21:57:06.138Z,7.30
2018-04-01T21:59:32.445Z,8.25
2018-04-01T22:01:58.630Z,6.68
2018-04-01T22:04:24.872Z,10.85
2018-04-01T22:06:52.059Z,7.85
2018-04-01T22:09:18.312Z,7.12
2018-04-01T22:11:44.594Z,5.32
2018-04-01T22:14:11.565Z,7.37
2018-04-01T22:16:37.803Z,6.90
2018-04-01T22:19:04.794Z,7.85
2018-04-01T22:21:31.046Z,5.00
2018-04-01T22:23:57.265Z,7.47
2018-04-01T22:26:23.520Z,13.27
2018-04-01T22:28:49.767Z,10.15
2018-04-01T22:31:15.975Z,6.00
2018-04-01T22:33:42.221Z,6.78
2018-04-01T22:36:08.430Z,8.43
2018-04-01T22:38:35.411Z,7.85
2018-04-01T22:41:01.675Z,7.03
2018-04-01T22:43:27.937Z,6.07
2018-04-01T22:45:54.178Z,9.30
2018-04-01T22:48:20.421Z,9.10
2018-04-01T22:50:46.682Z,10.98
2018-04-01T22:53:12.942Z,8.75
2018-04-01T22:55:39.954Z,8.52
2018-04-01T22:58:06.189Z,11.00
2018-04-01T23:00:32.424Z,11.60
2018-04-01T23:02:58.663Z,9.20
2018-04-01T23:05:24.895Z,7.75
2018-04-01T23:07:51.145Z,8.90
2018-04-01T23:10:17.424Z,11.52
2018-04-01T23:12:43.650Z,8.60
2018-04-01T23:15:09.879Z,9.32
2018-04-01T23:17:36.134Z,7.85
2018-04-01T23:20:02.363Z,9.00
2018-04-01T23:22:28.566Z,10.55
2018-04-01T23:24:54.810Z,7.40
2018-04-01T23:27:21.259Z,13.27
2018-04-01T23:29:47.518Z,8.05
2018-04-01T23:32:13.746Z,8.27
2018-04-01T23:34:39.948Z,8.40
2018-04-01T23:37:06.918Z,7.68
2018-04-01T23:39:33.876Z,11.75
2018-04-01T23:42:00.856Z,8.05
2018-04-01T23:44:27.058Z,12.37
2018-04-01T23:46:54.052Z,8.13
2018-04-01T23:49:20.268Z,9.32
2018-04-01T23:51:47.215Z,9.50
2018-04-01T23:54:14.193Z,14.77
2018-04-01T23:56:40.420Z,11.27
2018-04-01T23:59:07.473Z,8.15
